Flight Track Log - Related Links

Times and Time Zones

All times are in EDT time to prevent confusion due to time zone crossing. See the QJE6200 flight status page for this flight to view local times or setup timezone preferences in your user account.

Time Position Orientation Groundspeed Altitude Reporting Facility
EDT Latitude Longitude Course Direction KTS MPH feet Rate Location/Type
Sun 07:56:30 PM -30.8277 121.4007 241° Southwest 27,400  Level Aus ATC (Calculated)
Sun 07:57:15 PM -30.8548 121.3365 240° Southwest 27,400 737 Level Aus ATC (Calculated)
Sun 07:59:00 PM -30.9767 121.1022 239° Southwest  Level FlightAware Approximate
Sun 08:00:00 PM -31.0462 120.9681 239° Southwest  Level FlightAware Approximate
Sun 08:00:14 PM -30.9891 121.0865 241° Southwest 27,400  Level Aus ATC (Calculated)
Sun 08:02:00 PM -31.1105 120.8486 239° Southwest  Level FlightAware Approximate
Sun 08:02:19 PM -31.0829 120.8969 242° Southwest 27,400  Level Aus ATC (Calculated)
Sun 08:03:11 PM -31.1176 120.8345 242° Southwest 27,400 1,636 Level Aus ATC (Calculated)
Sun 08:05:00 PM -31.2420 120.5891 239° Southwest  Level FlightAware Approximate
Sun 08:05:11 PM -31.2126 120.6447 244° Southwest 27,400  Level Aus ATC (Calculated)
Sun 08:06:03 PM -31.2773 120.5184 246° West 27,400 4,105 Level Aus ATC (Calculated)
Sun 08:06:19 PM -31.2776 120.5185 246° West 27,400 7,548 Level Aus ATC (Calculated)
Sun 08:07:05 PM -31.3797 120.2460 239° Southwest 442 509 35,200 4,031 Climbing Aus ATC (RADAR)
Sun 08:08:30 PM -31.4528 120.0589 245° Southwest 441 507 36,200 626 Climbing Aus ATC (RADAR)
Sun 08:09:00 PM -31.4800 119.9927 244° Southwest 444 511 36,400 171 Climbing Aus ATC (RADAR)
Sun 08:09:40 PM -31.5123 119.9042 247° West 441 507 36,400  Level Aus ATC (RADAR)
Sun 08:10:30 PM -31.5546 119.7930 246° West 444 511 36,400  Level Aus ATC (RADAR)
Sun 08:11:00 PM -31.5801 119.7256 246° West 448 516 36,400  Level Aus ATC (RADAR)
Sun 08:11:50 PM -31.6214 119.6139 246° West 446 513 36,400  Level Aus ATC (RADAR)
Sun 08:12:05 PM -31.6343 119.5805 246° West 442 509 36,400  Level Aus ATC (RADAR)
Sun 08:13:29 PM -31.7056 119.3900 246° West 445 512 36,400  Level Aus ATC (RADAR)
Sun 08:13:45 PM -31.7173 119.3564 248° West 442 509 36,400  Level Aus ATC (RADAR)
Sun 08:14:20 PM -31.7466 119.2784 246° West 444 511 36,400  Level Aus ATC (RADAR)
Sun 08:15:09 PM -31.7892 119.1664 246° West 443 510 36,400  Level Aus ATC (RADAR)
Sun 08:15:44 PM -31.8170 119.0881 247° West 439 505 36,400 -67 Level Aus ATC (RADAR)
Sun 08:16:39 PM -31.8628 118.9654 246° West 445 512 36,300 -71 Descending Aus ATC (RADAR)
Sun 08:17:09 PM -31.8878 118.8978 246° West 446 513 36,300  Level Aus ATC (RADAR)
Sun 08:18:49 PM -31.9685 118.6740 247° West 438 504 36,300  Level Aus ATC (RADAR)
Sun 08:19:14 PM -31.9903 118.6173 246° West 445 512 36,300  Level Aus ATC (RADAR)
Sun 08:19:49 PM -32.0179 118.5387 248° West 440 506 36,300  Level Aus ATC (RADAR)
Sun 08:20:28 PM -32.0510 118.4480 247° West 446 513 36,300  Level Aus ATC (RADAR)
Sun 08:21:09 PM -32.0839 118.3578 247° West 443 510 36,300  Level Aus ATC (RADAR)
Sun 08:21:53 PM -32.1245 118.2580 244° Southwest 443 510 36,300  Level Aus ATC (RADAR)
Sun 08:22:18 PM -32.1472 118.2026 244° Southwest 444 511 36,300  Level Aus ATC (RADAR)
Sun 08:23:43 PM -32.2234 118.0130 245° Southwest 447 514 36,300  Level Aus ATC (RADAR)
Sun 08:24:13 PM -32.2499 117.9464 245° Southwest 444 511 36,300  Level Aus ATC (RADAR)
Sun 08:24:48 PM -32.2802 117.8678 245° Southwest 445 512 36,300 -1,050 Level Aus ATC (RADAR)
Sun 08:25:33 PM -32.3206 117.7674 244° Southwest 440 506 34,900 -2,550 Descending Aus ATC (RADAR)
Sun 08:26:08 PM -32.3429 117.6864 252° West 441 507 32,900 -3,375 Descending Aus ATC (RADAR)
Sun 08:26:53 PM -32.3433 117.5752 270° West 443 510 30,400 -3,257 Descending Aus ATC (RADAR)
Sun 08:27:18 PM -32.3311 117.5146 283° West 439 505 29,100 -2,940 Descending Aus ATC (RADAR)
Sun 08:28:33 PM -32.2867 117.3409 287° West 417 480 25,500 -2,842 Descending Aus ATC (RADAR)
Sun 08:28:53 PM -32.2759 117.2960 286° West 412 474 24,600 -2,836 Descending Aus ATC (RADAR)
Sun 08:29:28 PM -32.2575 117.2196 286° West 397 457 22,900 -2,753 Descending Aus ATC (RADAR)
Sun 08:30:18 PM -32.2325 117.1159 286° West 378 435 20,700 -2,629 Descending Aus ATC (RADAR)
Sun 08:30:57 PM -32.2133 117.0360 286° West 362 417 19,000 -1,888 Descending Aus ATC (RADAR)
Sun 08:31:47 PM -32.1901 116.9422 286° West 338 389 17,900 -1,182 Descending Aus ATC (RADAR)
Sun 08:32:03 PM -32.1837 116.9169 287° West 323 372 17,700 -1,418 Descending Aus ATC (RADAR)
Sun 08:32:42 PM -32.1729 116.8476 280° West 310 357 16,600 -1,839 Descending Aus ATC (RADAR)
Sun 08:34:07 PM -32.1546 116.7037 279° West 294 338 13,900 -1,909 Descending Aus ATC (RADAR)
Sun 08:34:32 PM -32.1498 116.6635 278° West 286 329 13,100 -1,900 Descending Aus ATC (RADAR)
Sun 08:35:07 PM -32.1424 116.6090 279° West 277 319 12,000 -1,800 Descending Aus ATC (RADAR)
Sun 08:35:52 PM -32.1333 116.5393 279° West 274 315 10,700 -1,950 Descending Aus ATC (RADAR)
Sun 08:36:27 PM -32.1262 116.4863 279° West 267 307 9,400 -1,976 Descending Aus ATC (RADAR)
Sun 08:37:17 PM -32.1166 116.4124 279° West 261 300 7,900 -1,840 Descending Aus ATC (RADAR)
Sun 08:37:42 PM -32.1115 116.3746 279° West 265 305 7,100 -1,389 Descending Aus ATC (RADAR)
Sun 08:38:52 PM -32.0978 116.2734 279° West 250 288 5,700 -1,074 Descending Aus ATC (RADAR)
Sun 08:39:17 PM -32.0933 116.2408 279° West 236 272 5,400 -738 Descending Aus ATC (RADAR)
Sun 08:39:57 PM -32.0864 116.1907 279° West 226 260 4,900 -750 Descending Aus ATC (RADAR)
Sun 08:40:37 PM -32.0799 116.1405 279° West 224 258 4,400 -880 Descending Aus ATC (RADAR)
Sun 08:41:12 PM -32.0740 116.0970 279° West 223 257 3,800 -867 Descending Aus ATC (RADAR)
Sun 08:42:07 PM -32.0596 116.0350 285° West 200 230 3,100 -870 Descending Aus ATC (RADAR)
Sun 08:42:21 PM -32.0562 116.0193 284° West 194 223 2,800 -894 Descending Aus ATC (RADAR)
Sun 08:43:41 PM -32.0380 115.9450 286° West 157 181 1,700 -764 Descending Aus ATC (RADAR)
Sun 08:44:11 PM -32.0211 115.9418 351° North 132 152 1,400 -764 Descending Aus ATC (RADAR)
Sun 08:44:36 PM -32.0070 115.9455 12° North 127 146 1,000 -689 Descending Aus ATC (RADAR)
Sun 08:45:12 PM -31.9878 115.9513 14° North 122 140 700 -560 Descending Aus ATC (RADAR)
Sun 08:45:51 PM -31.9652 115.9581 14° North 129 148 300 -615 Descending Aus ATC (RADAR)

Login

Don't have an account? Register now (free) for customized features, flight alerts, and more!